createdAt,value
2018-03-19T00:01:01.418Z,100192.70
2018-03-19T00:02:07.105Z,100187.16
2018-03-19T00:03:12.812Z,100194.39
2018-03-19T00:04:18.569Z,100188.85
2018-03-19T00:05:24.552Z,100185.86
2018-03-19T00:06:31.048Z,100190.09
2018-03-19T00:07:36.765Z,100186.72
2018-03-19T00:08:42.468Z,100185.00
2018-03-19T00:09:49.694Z,100183.31
2018-03-19T00:10:55.401Z,100181.16
2018-03-19T00:12:01.893Z,100178.17
2018-03-19T00:13:07.608Z,100188.44
2018-03-19T00:14:14.089Z,100185.41
2018-03-19T00:15:19.791Z,100183.72
2018-03-19T00:16:26.275Z,100184.16
2018-03-19T00:17:32.004Z,100182.87
2018-03-19T00:18:38.496Z,100179.05
2018-03-19T00:19:44.224Z,100180.31
2018-03-19T00:20:49.918Z,100176.48
2018-03-19T00:21:57.140Z,100182.03
2018-03-19T00:23:02.865Z,100178.61
2018-03-19T00:24:09.008Z,100176.48
2018-03-19T00:25:15.491Z,100177.37
2018-03-19T00:26:21.314Z,100173.52
2018-03-19T00:27:28.002Z,100176.48
2018-03-19T00:28:33.738Z,100175.18
2018-03-19T00:29:39.453Z,100175.16
2018-03-19T00:30:45.389Z,100176.00
2018-03-19T00:31:51.872Z,100173.43
2018-03-19T00:32:57.579Z,100164.06
2018-03-19T00:34:03.317Z,100167.03
2018-03-19T00:35:09.013Z,100169.20
2018-03-19T00:36:14.524Z,100169.63
2018-03-19T00:37:20.997Z,100167.48
2018-03-19T00:38:26.709Z,100171.75
2018-03-19T00:39:33.208Z,100165.34
2018-03-19T00:40:38.731Z,100167.05
2018-03-19T00:41:44.443Z,100171.35
2018-03-19T00:42:50.000Z,100170.05
2018-03-19T00:43:55.710Z,100168.79
2018-03-19T00:45:01.432Z,100168.38
2018-03-19T00:46:07.148Z,100169.23
2018-03-19T00:47:12.887Z,100170.48
2018-03-19T00:48:18.607Z,100164.91
2018-03-19T00:49:24.348Z,100168.28
2018-03-19T00:50:30.068Z,100172.97
2018-03-19T00:51:36.555Z,100178.12
2018-03-19T00:52:42.262Z,100175.99
2018-03-19T00:53:48.746Z,100170.02
2018-03-19T00:54:54.453Z,100164.91
2018-03-19T00:56:00.172Z,100169.99
2018-03-19T00:57:05.885Z,100169.58
2018-03-19T00:58:11.618Z,100168.28
2018-03-19T00:59:17.330Z,100172.52
2018-03-19T01:00:23.819Z,100173.34
2018-03-19T01:01:29.559Z,100167.81
2018-03-19T01:02:35.269Z,100168.64
2018-03-19T01:03:40.978Z,100167.80
2018-03-19T01:04:46.687Z,100161.44
2018-03-19T01:05:52.393Z,100155.47
2018-03-19T01:06:58.894Z,100167.36
2018-03-19T01:08:04.588Z,100165.23
2018-03-19T01:09:11.367Z,100167.38
2018-03-19T01:10:19.932Z,100170.34
2018-03-19T01:11:25.810Z,100170.36
2018-03-19T01:12:32.308Z,100169.08
2018-03-19T01:13:38.032Z,100162.64
2018-03-19T01:14:43.762Z,100158.80
2018-03-19T01:15:49.460Z,100158.38
2018-03-19T01:16:55.203Z,100159.20
2018-03-19T01:18:00.946Z,100160.48
2018-03-19T01:19:06.332Z,100159.23
2018-03-19T01:20:12.040Z,100156.22
2018-03-19T01:21:18.540Z,100154.52
2018-03-19T01:22:24.239Z,100160.06
2018-03-19T01:23:29.955Z,100160.05
2018-03-19T01:24:35.673Z,100160.49
2018-03-19T01:25:41.375Z,100153.67
2018-03-19T01:26:47.855Z,100154.07
2018-03-19T01:27:53.553Z,100160.88
2018-03-19T01:29:00.065Z,100152.79
2018-03-19T01:30:05.452Z,100156.17
2018-03-19T01:31:11.931Z,100152.37
2018-03-19T01:32:18.394Z,100153.22
2018-03-19T01:33:24.111Z,100153.65
2018-03-19T01:34:30.622Z,100151.51
2018-03-19T01:35:36.323Z,100152.39
2018-03-19T01:36:42.028Z,100154.13
2018-03-19T01:37:47.752Z,100146.84
2018-03-19T01:38:53.473Z,100145.55
2018-03-19T01:39:59.215Z,100140.88
2018-03-19T01:41:04.694Z,100150.20
2018-03-19T01:42:10.416Z,100143.42
2018-03-19T01:43:16.138Z,100137.48
2018-03-19T01:44:21.854Z,100140.02
2018-03-19T01:45:27.593Z,100137.47
2018-03-19T01:46:33.298Z,100140.05
2018-03-19T01:47:39.007Z,100134.48
2018-03-19T01:48:44.748Z,100136.64
2018-03-19T01:49:50.456Z,100144.69
2018-03-19T01:50:56.182Z,100142.98
2018-03-19T01:52:02.650Z,100143.82
2018-03-19T01:53:08.046Z,100137.01
2018-03-19T01:54:13.764Z,100137.86
2018-03-19T01:55:19.456Z,100134.89
2018-03-19T01:56:25.940Z,100134.92
2018-03-19T01:57:31.743Z,100129.33
2018-03-19T01:58:37.450Z,100131.87
2018-03-19T01:59:43.169Z,100129.34
2018-03-19T02:00:48.869Z,100137.83
2018-03-19T02:01:54.645Z,100129.74
2018-03-19T02:03:00.336Z,100130.56
2018-03-19T02:04:06.814Z,100129.25
2018-03-19T02:05:13.278Z,100128.81
2018-03-19T02:06:18.998Z,100129.23
2018-03-19T02:07:25.493Z,100124.13
2018-03-19T02:08:31.201Z,100124.59
2018-03-19T02:09:37.673Z,100118.22
2018-03-19T02:10:43.388Z,100123.77
2018-03-19T02:11:49.089Z,100120.78
2018-03-19T02:12:55.206Z,100123.78
2018-03-19T02:14:00.912Z,100122.48
2018-03-19T02:15:06.307Z,100120.34
2018-03-19T02:16:12.025Z,100122.48
2018-03-19T02:17:17.729Z,100118.20
2018-03-19T02:18:23.465Z,100120.33
2018-03-19T02:19:28.837Z,100122.88
2018-03-19T02:20:34.213Z,100121.17
2018-03-19T02:21:39.733Z,100119.45
2018-03-19T02:22:45.452Z,100114.80
2018-03-19T02:23:51.177Z,100116.05
2018-03-19T02:24:57.650Z,100118.61
2018-03-19T02:26:03.352Z,100120.73
2018-03-19T02:27:09.061Z,100118.16
2018-03-19T02:28:14.765Z,100119.45
2018-03-19T02:29:21.249Z,100123.31
2018-03-19T02:30:26.966Z,100126.70
2018-03-19T02:31:32.673Z,100118.19
2018-03-19T02:32:39.148Z,100112.66
2018-03-19T02:33:45.626Z,100111.37
2018-03-19T02:34:51.374Z,100114.78
2018-03-19T02:35:57.098Z,100119.43
2018-03-19T02:37:02.809Z,100120.29
2018-03-19T02:38:08.517Z,100120.73
2018-03-19T02:39:14.217Z,100123.70
2018-03-19T02:40:19.948Z,100119.86
2018-03-19T02:41:26.421Z,100117.30
2018-03-19T02:42:32.133Z,100122.41
2018-03-19T02:43:37.873Z,100119.85
2018-03-19T02:44:44.905Z,100122.37
2018-03-19T02:45:50.626Z,100110.84
2018-03-19T02:46:56.440Z,100112.14
2018-03-19T02:48:02.326Z,100110.80
2018-03-19T02:49:08.057Z,100112.11
2018-03-19T02:50:13.754Z,100115.95
2018-03-19T02:51:20.316Z,100112.52
2018-03-19T02:52:26.187Z,100122.78
2018-03-19T02:53:31.910Z,100115.10
2018-03-19T02:54:37.615Z,100115.48
2018-03-19T02:55:43.330Z,100125.31
2018-03-19T02:56:48.878Z,100119.78
2018-03-19T02:57:54.589Z,100121.46
2018-03-19T02:59:00.313Z,100116.77
2018-03-19T03:00:05.906Z,100119.72
2018-03-19T03:01:11.720Z,100120.58
2018-03-19T03:02:17.452Z,100117.16
2018-03-19T03:03:23.153Z,100117.58
2018-03-19T03:04:28.860Z,100117.11
2018-03-19T03:05:34.568Z,100119.69
2018-03-19T03:06:40.311Z,100123.95
2018-03-19T03:07:46.026Z,100119.69
2018-03-19T03:08:52.503Z,100127.36
2018-03-19T03:09:58.984Z,100120.56
2018-03-19T03:11:04.690Z,100121.81
2018-03-19T03:12:11.158Z,100123.08
2018-03-19T03:13:16.888Z,100123.11
2018-03-19T03:14:22.593Z,100125.69
2018-03-19T03:15:28.305Z,100129.91
2018-03-19T03:16:33.692Z,100130.81
2018-03-19T03:17:40.180Z,100129.94
2018-03-19T03:18:45.881Z,100128.23
2018-03-19T03:19:51.587Z,100130.39
2018-03-19T03:20:57.305Z,100126.13
2018-03-19T03:22:03.035Z,100130.78
2018-03-19T03:23:09.528Z,100132.05
2018-03-19T03:24:15.237Z,100132.92
2018-03-19T03:25:21.746Z,100133.36
2018-03-19T03:26:27.612Z,100134.63
2018-03-19T03:27:33.313Z,100135.87
2018-03-19T03:28:39.048Z,100132.46
2018-03-19T03:29:44.762Z,100133.24
2018-03-19T03:30:51.243Z,100140.53
2018-03-19T03:31:56.967Z,100131.95
2018-03-19T03:33:02.682Z,100136.65
2018-03-19T03:34:09.179Z,100140.90
2018-03-19T03:35:14.889Z,100137.05
2018-03-19T03:36:21.363Z,100136.22
2018-03-19T03:37:27.064Z,100133.65
2018-03-19T03:38:32.778Z,100140.88
2018-03-19T03:39:38.510Z,100139.59
2018-03-19T03:40:44.220Z,100143.84
2018-03-19T03:41:49.935Z,100146.38
2018-03-19T03:42:56.408Z,100142.56
2018-03-19T03:44:02.885Z,100139.58
2018-03-19T03:45:08.626Z,100139.17
2018-03-19T03:46:14.361Z,100141.30
2018-03-19T03:47:20.068Z,100139.59
2018-03-19T03:48:26.007Z,100137.05
2018-03-19T03:49:31.740Z,100140.48
2018-03-19T03:50:37.240Z,100138.77
2018-03-19T03:51:42.964Z,100144.27
2018-03-19T03:52:48.680Z,100146.38
2018-03-19T03:53:55.882Z,100145.55
2018-03-19T03:55:01.649Z,100140.81
2018-03-19T03:56:07.352Z,100144.24
2018-03-19T03:57:13.817Z,100142.55
2018-03-19T03:58:19.529Z,100146.77
2018-03-19T03:59:25.996Z,100146.34
2018-03-19T04:00:32.505Z,100143.38
2018-03-19T04:01:38.221Z,100142.06
2018-03-19T04:02:43.926Z,100144.22
2018-03-19T04:03:49.632Z,100145.92
2018-03-19T04:04:55.352Z,100140.79
2018-03-19T04:06:01.083Z,100150.14
2018-03-19T04:07:06.797Z,100152.70
2018-03-19T04:08:12.726Z,100141.19
2018-03-19T04:09:18.443Z,100145.90
2018-03-19T04:10:24.146Z,100145.90
2018-03-19T04:11:29.878Z,100147.57
2018-03-19T04:12:36.352Z,100142.86
2018-03-19T04:13:42.072Z,100147.16
2018-03-19T04:14:48.557Z,100146.30
2018-03-19T04:15:54.256Z,100151.39
2018-03-19T04:16:59.987Z,100149.27
2018-03-19T04:18:05.708Z,100149.70
2018-03-19T04:19:11.441Z,100148.84
2018-03-19T04:20:17.147Z,100157.77
2018-03-19T04:21:22.848Z,100153.52
2018-03-19T04:22:28.584Z,100155.21
2018-03-19T04:23:34.305Z,100154.35
2018-03-19T04:24:40.047Z,100157.34
2018-03-19T04:25:45.763Z,100157.77
2018-03-19T04:26:51.481Z,100154.36
2018-03-19T04:27:57.991Z,100158.63
2018-03-19T04:29:03.696Z,100156.05
2018-03-19T04:30:09.408Z,100155.64
2018-03-19T04:31:15.141Z,100157.77
2018-03-19T04:32:20.850Z,100164.15
2018-03-19T04:33:26.592Z,100156.04
2018-03-19T04:34:32.301Z,100163.28
2018-03-19T04:35:38.769Z,100156.45
2018-03-19T04:36:44.463Z,100162.41
2018-03-19T04:37:50.219Z,100161.12
2018-03-19T04:38:56.121Z,100161.54
2018-03-19T04:40:01.824Z,100167.50
2018-03-19T04:41:07.535Z,100161.11
2018-03-19T04:42:13.248Z,100160.67
2018-03-19T04:43:18.960Z,100162.37
2018-03-19T04:44:24.691Z,100167.05
2018-03-19T04:45:30.405Z,100168.30
2018-03-19T04:46:36.919Z,100167.04
2018-03-19T04:47:42.680Z,100161.91
2018-03-19T04:48:49.157Z,100169.16
2018-03-19T04:49:54.896Z,100166.19
2018-03-19T04:51:00.591Z,100168.29
2018-03-19T04:52:06.300Z,100166.98
2018-03-19T04:53:12.012Z,100168.70
2018-03-19T04:54:17.717Z,100165.70
2018-03-19T04:55:23.454Z,100161.03
2018-03-19T04:56:29.164Z,100163.59
2018-03-19T04:57:34.902Z,100165.70
2018-03-19T04:58:41.404Z,100162.71
2018-03-19T04:59:47.107Z,100165.70
2018-03-19T05:00:52.843Z,100167.41
2018-03-19T05:01:59.339Z,100164.02
2018-03-19T05:03:05.074Z,100168.68
2018-03-19T05:04:10.782Z,100166.11
2018-03-19T05:05:16.493Z,100175.45
2018-03-19T05:06:22.224Z,100169.90
2018-03-19T05:07:27.939Z,100174.16
2018-03-19T05:08:33.652Z,100175.46
2018-03-19T05:09:39.359Z,100177.50
2018-03-19T05:10:45.833Z,100174.12
2018-03-19T05:11:52.339Z,100173.72
2018-03-19T05:12:58.258Z,100177.55
2018-03-19T05:14:04.054Z,100180.52
2018-03-19T05:15:09.767Z,100178.82
2018-03-19T05:16:15.484Z,100175.40
2018-03-19T05:17:21.232Z,100177.95
2018-03-19T05:18:26.984Z,100177.94
2018-03-19T05:19:32.693Z,100181.77
2018-03-19T05:20:38.446Z,100177.11
2018-03-19T05:21:44.161Z,100178.38
2018-03-19T05:22:50.660Z,100179.67
2018-03-19T05:23:56.378Z,100181.34
2018-03-19T05:25:02.085Z,100179.23
2018-03-19T05:26:07.845Z,100186.47
2018-03-19T05:27:14.315Z,100185.19
2018-03-19T05:28:20.051Z,100179.64
2018-03-19T05:29:26.532Z,100183.06
2018-03-19T05:30:32.241Z,100188.59
2018-03-19T05:31:38.709Z,100183.54
2018-03-19T05:32:44.415Z,100185.63
2018-03-19T05:33:50.154Z,100188.20
2018-03-19T05:34:56.632Z,100188.65
2018-03-19T05:36:03.128Z,100186.07
2018-03-19T05:37:08.836Z,100196.75
2018-03-19T05:38:14.805Z,100197.20
2018-03-19T05:39:20.531Z,100195.91
2018-03-19T05:40:27.005Z,100198.91
2018-03-19T05:41:32.726Z,100197.16
2018-03-19T05:42:39.209Z,100201.47
2018-03-19T05:43:44.914Z,100198.48
2018-03-19T05:44:50.629Z,100200.65
2018-03-19T05:45:56.339Z,100195.11
2018-03-19T05:47:02.094Z,100198.11
2018-03-19T05:48:08.060Z,100203.21
2018-03-19T05:49:14.673Z,100204.06
2018-03-19T05:50:20.430Z,100198.10
2018-03-19T05:51:26.177Z,100200.67
2018-03-19T05:52:32.105Z,100202.38
2018-03-19T05:53:37.830Z,100201.15
2018-03-19T05:54:44.303Z,100198.16
2018-03-19T05:55:50.030Z,100200.73
2018-03-19T05:56:55.788Z,100206.68
2018-03-19T05:58:01.509Z,100200.32
2018-03-19T05:59:07.996Z,100207.55
2018-03-19T06:00:13.750Z,100198.22
2018-03-19T06:01:19.480Z,100204.17
2018-03-19T06:02:25.032Z,100198.23
2018-03-19T06:03:30.749Z,100204.22
2018-03-19T06:04:36.462Z,100207.21
2018-03-19T06:05:42.923Z,100206.80
2018-03-19T06:06:49.417Z,100203.39
2018-03-19T06:07:55.132Z,100206.80
2018-03-19T06:09:00.862Z,100206.80
2018-03-19T06:10:06.237Z,100208.08
2018-03-19T06:11:12.201Z,100211.94
2018-03-19T06:12:18.172Z,100208.55
2018-03-19T06:13:23.951Z,100215.39
2018-03-19T06:14:29.684Z,100214.97
2018-03-19T06:15:35.620Z,100212.84
2018-03-19T06:16:41.359Z,100212.86
2018-03-19T06:17:47.103Z,100213.73
2018-03-19T06:18:53.285Z,100212.09
2018-03-19T06:19:59.105Z,100215.11
2018-03-19T06:21:04.822Z,100218.95
2018-03-19T06:22:10.549Z,100213.83
2018-03-19T06:23:16.283Z,100211.72
2018-03-19T06:24:22.017Z,100214.30
2018-03-19T06:25:29.244Z,100210.48
2018-03-19T06:26:35.115Z,100213.03
2018-03-19T06:27:41.622Z,100216.50
2018-03-19T06:28:47.362Z,100216.91
2018-03-19T06:29:53.076Z,100216.94
2018-03-19T06:30:58.785Z,100211.00
2018-03-19T06:32:04.260Z,100216.98
2018-03-19T06:33:10.019Z,100219.53
2018-03-19T06:34:15.504Z,100218.70
2018-03-19T06:35:21.834Z,100221.67
2018-03-19T06:36:27.729Z,100212.76
2018-03-19T06:37:33.454Z,100217.45
2018-03-19T06:38:39.004Z,100215.77
2018-03-19T06:39:44.749Z,100216.63
2018-03-19T06:40:50.452Z,100212.83
2018-03-19T06:41:56.217Z,100211.16
2018-03-19T06:43:02.701Z,100213.70
2018-03-19T06:44:08.422Z,100208.16
2018-03-19T06:45:14.184Z,100215.87
2018-03-19T06:46:19.932Z,100206.94
2018-03-19T06:47:27.530Z,100212.08
2018-03-19T06:48:35.933Z,100210.78
2018-03-19T06:49:41.678Z,100212.95
2018-03-19T06:50:47.432Z,100210.02
2018-03-19T06:51:53.146Z,100202.76
2018-03-19T06:52:58.869Z,100204.50
2018-03-19T06:54:04.657Z,100204.92
2018-03-19T06:55:10.384Z,100205.77
2018-03-19T06:56:16.261Z,100204.94
2018-03-19T06:57:22.769Z,100204.11
2018-03-19T06:58:28.495Z,100204.98
2018-03-19T06:59:34.201Z,100200.29
2018-03-19T07:00:39.958Z,100203.73
2018-03-19T07:01:45.674Z,100211.42
2018-03-19T07:02:51.387Z,100205.88
2018-03-19T07:03:57.101Z,100202.92
2018-03-19T07:05:02.800Z,100198.63
2018-03-19T07:06:09.304Z,100203.77
2018-03-19T07:07:15.032Z,100197.41
2018-03-19T07:08:20.745Z,100201.26
2018-03-19T07:09:26.455Z,100194.02
2018-03-19T07:10:32.172Z,100193.61
2018-03-19T07:11:37.904Z,100198.75
2018-03-19T07:12:44.025Z,100199.17
2018-03-19T07:13:50.498Z,100199.18
2018-03-19T07:14:56.216Z,100201.33
2018-03-19T07:16:02.697Z,100198.77
2018-03-19T07:17:08.453Z,100196.64
2018-03-19T07:18:14.164Z,100203.91
2018-03-19T07:19:20.641Z,100196.25
2018-03-19T07:20:26.351Z,100201.80
2018-03-19T07:21:32.057Z,100201.80
2018-03-19T07:22:37.824Z,100196.70
2018-03-19T07:23:43.721Z,100194.59
2018-03-19T07:24:49.428Z,100200.58
2018-03-19T07:25:55.910Z,100195.89
2018-03-19T07:27:01.620Z,100201.89
2018-03-19T07:28:08.126Z,100195.05
2018-03-19T07:29:13.853Z,100205.28
2018-03-19T07:30:19.565Z,100205.33
2018-03-19T07:31:26.048Z,100204.05
2018-03-19T07:32:31.752Z,100197.64
2018-03-19T07:33:37.527Z,100195.97
2018-03-19T07:34:43.259Z,100202.80
2018-03-19T07:35:49.931Z,100200.22
2018-03-19T07:36:55.644Z,100204.94
2018-03-19T07:38:01.353Z,100205.81
2018-03-19T07:39:06.420Z,100203.27
2018-03-19T07:40:12.898Z,100200.70
2018-03-19T07:41:18.620Z,100202.84
2018-03-19T07:42:25.100Z,100199.45
2018-03-19T07:43:30.835Z,100198.61
2018-03-19T07:44:36.616Z,100197.34
2018-03-19T07:45:42.321Z,100201.63
2018-03-19T07:46:48.365Z,100203.77
2018-03-19T07:47:54.080Z,100200.34
2018-03-19T07:49:00.585Z,100198.22
2018-03-19T07:50:06.816Z,100197.77
2018-03-19T07:51:12.543Z,100202.45
2018-03-19T07:52:19.022Z,100199.77
2018-03-19T07:53:24.952Z,100198.23
2018-03-19T07:54:31.458Z,100198.75
2018-03-19T07:55:37.171Z,100199.56
2018-03-19T07:56:42.874Z,100205.51
2018-03-19T07:57:49.572Z,100197.59
2018-03-19T07:58:55.265Z,100203.67
2018-03-19T08:00:01.014Z,100192.65
2018-03-19T08:01:06.716Z,100191.97
2018-03-19T08:02:12.426Z,100197.59
2018-03-19T08:03:18.136Z,100198.58
2018-03-19T08:04:24.608Z,100190.15
2018-03-19T08:05:31.101Z,100196.56
2018-03-19T08:06:36.801Z,100192.19
2018-03-19T08:07:43.281Z,100184.04
2018-03-19T08:08:48.985Z,100188.27
2018-03-19T08:09:54.700Z,100188.25
2018-03-19T08:11:00.460Z,100188.20
2018-03-19T08:12:06.228Z,100185.80
2018-03-19T08:13:12.100Z,100192.86
2018-03-19T08:14:18.581Z,100189.16
2018-03-19T08:15:24.288Z,100179.83
2018-03-19T08:16:30.021Z,100179.84
2018-03-19T08:17:36.507Z,100184.31
2018-03-19T08:18:42.197Z,100181.28
2018-03-19T08:19:47.900Z,100185.19
2018-03-19T08:20:53.875Z,100179.84
2018-03-19T08:21:59.600Z,100184.26
2018-03-19T08:23:05.090Z,100188.42
2018-03-19T08:24:11.211Z,100183.19
2018-03-19T08:25:17.694Z,100183.54
2018-03-19T08:26:23.408Z,100182.61
2018-03-19T08:27:29.153Z,100182.01
2018-03-19T08:28:34.873Z,100179.91
2018-03-19T08:29:40.581Z,100184.91
2018-03-19T08:30:46.277Z,100177.19
2018-03-19T08:31:52.772Z,100178.11
2018-03-19T08:32:58.500Z,100178.42
2018-03-19T08:34:04.241Z,100177.09
2018-03-19T08:35:09.958Z,100184.89
2018-03-19T08:36:16.636Z,100174.16
2018-03-19T08:37:22.340Z,100181.84
2018-03-19T08:38:28.078Z,100181.91
2018-03-19T08:39:33.780Z,100184.34
2018-03-19T08:40:39.510Z,100180.88
2018-03-19T08:41:45.235Z,100183.99
2018-03-19T08:42:51.121Z,100186.19
2018-03-19T08:43:56.846Z,100187.31
2018-03-19T08:45:02.552Z,100183.98
2018-03-19T08:46:08.249Z,100191.79
2018-03-19T08:47:13.956Z,100183.20
2018-03-19T08:48:19.664Z,100185.05
2018-03-19T08:49:26.169Z,100182.13
2018-03-19T08:50:31.863Z,100178.00
2018-03-19T08:51:37.574Z,100178.66
2018-03-19T08:52:43.498Z,100170.60
2018-03-19T08:53:49.220Z,100170.58
2018-03-19T08:54:54.961Z,100174.33
2018-03-19T08:56:00.984Z,100175.94
2018-03-19T08:57:07.473Z,100170.55
2018-03-19T08:58:13.204Z,100176.25
2018-03-19T08:59:18.928Z,100171.99
2018-03-19T09:00:25.432Z,100172.63
2018-03-19T09:01:31.149Z,100173.30
2018-03-19T09:02:36.874Z,100173.75
2018-03-19T09:03:42.764Z,100172.16
2018-03-19T09:04:48.489Z,100171.55
2018-03-19T09:05:54.233Z,100168.25
2018-03-19T09:06:59.944Z,100165.13
2018-03-19T09:08:06.422Z,100162.64
2018-03-19T09:09:12.144Z,100168.14
2018-03-19T09:10:18.605Z,100164.61
2018-03-19T09:11:25.105Z,100162.39
2018-03-19T09:12:30.815Z,100168.70
2018-03-19T09:13:36.525Z,100165.05
2018-03-19T09:14:42.252Z,100167.20
2018-03-19T09:15:48.025Z,100161.89
2018-03-19T09:16:54.502Z,100161.44
2018-03-19T09:18:00.213Z,100158.75
2018-03-19T09:19:06.701Z,100158.16
2018-03-19T09:20:12.411Z,100156.44
2018-03-19T09:21:18.900Z,100153.92
2018-03-19T09:22:24.734Z,100153.09
2018-03-19T09:23:30.448Z,100152.59
2018-03-19T09:24:36.959Z,100149.42
2018-03-19T09:25:42.676Z,100155.47
2018-03-19T09:26:48.412Z,100148.58
2018-03-19T09:27:54.153Z,100160.98
2018-03-19T09:28:59.677Z,100159.27
2018-03-19T09:30:05.840Z,100163.11
2018-03-19T09:31:12.343Z,100164.91
2018-03-19T09:32:18.067Z,100163.91
2018-03-19T09:33:23.812Z,100158.31
2018-03-19T09:34:29.522Z,100160.67
2018-03-19T09:35:35.235Z,100165.13
2018-03-19T09:36:40.986Z,100166.36
2018-03-19T09:37:46.856Z,100167.16
2018-03-19T09:38:52.581Z,100162.83
2018-03-19T09:39:59.048Z,100160.66
2018-03-19T09:41:04.765Z,100161.75
2018-03-19T09:42:11.351Z,100159.23
2018-03-19T09:43:17.829Z,100165.27
2018-03-19T09:44:23.554Z,100165.17
2018-03-19T09:45:29.250Z,100166.34
2018-03-19T09:46:34.956Z,100162.08
2018-03-19T09:47:41.432Z,100163.90
2018-03-19T09:48:47.128Z,100165.22
2018-03-19T09:49:52.869Z,100166.33
2018-03-19T09:50:59.333Z,100163.22
2018-03-19T09:52:05.065Z,100163.44
2018-03-19T09:53:10.784Z,100161.84
2018-03-19T09:54:16.484Z,100163.95
2018-03-19T09:55:22.298Z,100159.52
2018-03-19T09:56:28.120Z,100158.19
2018-03-19T09:57:34.614Z,100158.77
2018-03-19T09:58:40.329Z,100163.17
2018-03-19T09:59:46.793Z,100160.69
2018-03-19T10:00:52.537Z,100161.38
2018-03-19T10:01:58.324Z,100166.84
2018-03-19T10:03:04.029Z,100163.70
2018-03-19T10:04:09.732Z,100172.63
2018-03-19T10:05:15.874Z,100171.52
2018-03-19T10:06:21.599Z,100166.47
2018-03-19T10:07:27.110Z,100166.80
2018-03-19T10:08:32.825Z,100165.89
2018-03-19T10:09:38.548Z,100161.72
2018-03-19T10:10:45.036Z,100163.34
2018-03-19T10:11:50.752Z,100167.69
2018-03-19T10:12:57.217Z,100166.20
2018-03-19T10:14:02.924Z,100169.19
2018-03-19T10:15:08.648Z,100165.44
2018-03-19T10:16:14.385Z,100169.19
2018-03-19T10:17:20.309Z,100167.23
2018-03-19T10:18:26.435Z,100162.74
2018-03-19T10:19:32.893Z,100167.03
2018-03-19T10:20:39.358Z,100167.80
2018-03-19T10:21:45.099Z,100159.31
2018-03-19T10:22:51.049Z,100157.06
2018-03-19T10:23:56.778Z,100162.75
2018-03-19T10:25:03.252Z,100159.39
2018-03-19T10:26:08.960Z,100154.67
2018-03-19T10:27:14.653Z,100152.48
2018-03-19T10:28:21.128Z,100155.53
2018-03-19T10:29:26.824Z,100157.66
2018-03-19T10:30:32.536Z,100159.72
2018-03-19T10:31:37.996Z,100150.47
2018-03-19T10:32:43.718Z,100152.11
2018-03-19T10:33:49.108Z,100150.63
2018-03-19T10:34:54.810Z,100153.05
2018-03-19T10:36:01.269Z,100153.05
2018-03-19T10:37:06.957Z,100159.08
2018-03-19T10:38:12.653Z,100155.77
2018-03-19T10:39:18.445Z,100156.92
2018-03-19T10:40:24.148Z,100153.05
2018-03-19T10:41:29.845Z,100153.72
2018-03-19T10:42:35.541Z,100148.63
2018-03-19T10:43:41.245Z,100148.87
2018-03-19T10:44:46.973Z,100147.30
2018-03-19T10:45:53.457Z,100148.64
2018-03-19T10:46:59.144Z,100152.27
2018-03-19T10:48:04.845Z,100152.75
2018-03-19T10:49:10.555Z,100143.91
2018-03-19T10:50:17.040Z,100146.06
2018-03-19T10:51:22.741Z,100148.37
2018-03-19T10:52:28.438Z,100147.41
2018-03-19T10:53:34.146Z,100150.83
2018-03-19T10:54:39.844Z,100145.77
2018-03-19T10:55:45.555Z,100146.10
2018-03-19T10:56:51.336Z,100138.22
2018-03-19T10:57:57.024Z,100142.39
2018-03-19T10:59:02.728Z,100140.82
2018-03-19T11:00:08.346Z,100140.72
2018-03-19T11:03:09.741Z,100140.59
2018-03-19T11:04:16.254Z,100135.98
2018-03-19T11:05:27.218Z,100138.80
2018-03-19T11:08:14.726Z,100139.59
2018-03-19T11:09:25.656Z,100134.92
2018-03-19T11:10:31.371Z,100135.83
2018-03-19T11:11:37.080Z,100139.28
2018-03-19T11:12:42.787Z,100136.65
2018-03-19T11:13:48.486Z,100130.95
2018-03-19T11:14:54.204Z,100133.56
2018-03-19T11:15:59.908Z,100136.30
2018-03-19T11:17:05.678Z,100131.70
2018-03-19T11:18:11.541Z,100129.48
2018-03-19T11:19:17.241Z,100126.69
2018-03-19T11:20:22.942Z,100130.14
2018-03-19T11:21:29.407Z,100129.66
2018-03-19T11:22:35.928Z,100126.21
2018-03-19T11:23:41.633Z,100123.98
2018-03-19T11:24:47.332Z,100123.59
2018-03-19T11:25:53.043Z,100124.02
2018-03-19T11:26:58.741Z,100124.95
2018-03-19T11:28:05.222Z,100121.90
2018-03-19T11:29:10.921Z,100114.39
2018-03-19T11:30:17.389Z,100117.30
2018-03-19T11:31:23.855Z,100118.28
2018-03-19T11:32:29.565Z,100110.75
2018-03-19T11:33:35.280Z,100121.88
2018-03-19T11:34:40.969Z,100112.94
2018-03-19T11:35:47.436Z,100129.18
2018-03-19T11:36:53.130Z,100119.98
2018-03-19T11:37:58.825Z,100125.44
2018-03-19T11:39:03.796Z,100117.16
2018-03-19T11:40:11.004Z,100116.41
2018-03-19T11:41:17.469Z,100112.39
2018-03-19T11:42:23.165Z,100112.84
2018-03-19T11:43:28.865Z,100121.48
2018-03-19T11:44:34.585Z,100120.73
2018-03-19T11:45:41.053Z,100123.28
2018-03-19T11:46:47.531Z,100125.26
2018-03-19T11:47:53.233Z,100116.88
2018-03-19T11:48:59.699Z,100114.63
2018-03-19T11:50:06.194Z,100109.48
2018-03-19T11:51:11.900Z,100115.39
2018-03-19T11:52:18.356Z,100115.58
2018-03-19T11:53:24.072Z,100114.00
2018-03-19T11:54:29.756Z,100115.96
2018-03-19T11:55:35.487Z,100119.42
2018-03-19T11:56:40.966Z,100113.84
2018-03-19T11:57:46.669Z,100108.19
2018-03-19T11:58:52.364Z,100116.49
2018-03-19T11:59:58.349Z,100111.40
2018-03-19T12:01:03.885Z,100118.03
2018-03-19T12:02:09.622Z,100109.60
2018-03-19T12:03:16.093Z,100107.32
2018-03-19T12:04:21.788Z,100103.02
2018-03-19T12:05:27.497Z,100099.84
2018-03-19T12:06:33.224Z,100101.00
2018-03-19T12:07:38.917Z,100103.48
2018-03-19T12:08:44.625Z,100100.93
2018-03-19T12:09:50.394Z,100099.08
2018-03-19T12:10:56.080Z,100094.19
2018-03-19T12:12:01.819Z,100089.80
2018-03-19T12:13:07.528Z,100097.23
2018-03-19T12:14:14.004Z,100095.94
2018-03-19T12:15:20.464Z,100093.32
2018-03-19T12:16:26.198Z,100091.91
2018-03-19T12:17:32.659Z,100084.91
2018-03-19T12:18:38.402Z,100083.51
2018-03-19T12:19:44.858Z,100079.58
2018-03-19T12:20:51.330Z,100084.20
2018-03-19T12:21:57.068Z,100079.31
2018-03-19T12:23:02.590Z,100076.70
2018-03-19T12:24:08.456Z,100083.52
2018-03-19T12:25:14.145Z,100079.07
2018-03-19T12:26:19.844Z,100075.58
2018-03-19T12:27:26.305Z,100084.41
2018-03-19T12:28:32.024Z,100080.73
2018-03-19T12:29:37.724Z,100075.41
2018-03-19T12:30:43.436Z,100076.05
2018-03-19T12:31:49.134Z,100072.99
2018-03-19T12:32:55.589Z,100070.78
2018-03-19T12:34:02.069Z,100070.64
2018-03-19T12:35:07.759Z,100070.92
2018-03-19T12:36:13.469Z,100066.91